sensor_id;sensor_type;location;lat;lon;timestamp;P1;durP1;ratioP1;P2;durP2;ratioP2
55210;SDS011;41082;52.822;6.666;2022-08-01T00:00:59;9.73;;;7.93;;
55210;SDS011;41082;52.822;6.666;2022-08-01T00:03:24;11.77;;;8.85;;
55210;SDS011;41082;52.822;6.666;2022-08-01T00:05:50;9.68;;;7.65;;
55210;SDS011;41082;52.822;6.666;2022-08-01T00:08:15;10.35;;;8.60;;
55210;SDS011;41082;52.822;6.666;2022-08-01T00:10:41;10.45;;;8.48;;
55210;SDS011;41082;52.822;6.666;2022-08-01T00:13:07;10.93;;;8.13;;
55210;SDS011;41082;52.822;6.666;2022-08-01T00:15:32;10.57;;;8.05;;
55210;SDS011;41082;52.822;6.666;2022-08-01T00:17:58;11.65;;;8.75;;
55210;SDS011;41082;52.822;6.666;2022-08-01T00:20:24;10.38;;;8.60;;
55210;SDS011;41082;52.822;6.666;2022-08-01T00:22:50;13.23;;;8.50;;
55210;SDS011;41082;52.822;6.666;2022-08-01T00:25:15;12.68;;;8.65;;
55210;SDS011;41082;52.822;6.666;2022-08-01T00:27:41;10.10;;;7.63;;
55210;SDS011;41082;52.822;6.666;2022-08-01T00:30:06;9.07;;;7.55;;
55210;SDS011;41082;52.822;6.666;2022-08-01T00:32:32;11.07;;;7.82;;
55210;SDS011;41082;52.822;6.666;2022-08-01T00:34:58;8.27;;;6.90;;
55210;SDS011;41082;52.822;6.666;2022-08-01T00:37:24;11.93;;;7.47;;
55210;SDS011;41082;52.822;6.666;2022-08-01T00:39:49;8.43;;;7.53;;
55210;SDS011;41082;52.822;6.666;2022-08-01T00:42:15;11.52;;;7.93;;
55210;SDS011;41082;52.822;6.666;2022-08-01T00:44:41;10.35;;;8.07;;
55210;SDS011;41082;52.822;6.666;2022-08-01T00:47:06;11.07;;;8.50;;
55210;SDS011;41082;52.822;6.666;2022-08-01T00:49:32;12.40;;;9.00;;
55210;SDS011;41082;52.822;6.666;2022-08-01T00:51:58;8.32;;;7.53;;
55210;SDS011;41082;52.822;6.666;2022-08-01T00:54:25;10.73;;;8.20;;
55210;SDS011;41082;52.822;6.666;2022-08-01T00:56:52;13.82;;;9.57;;
55210;SDS011;41082;52.822;6.666;2022-08-01T00:59:18;12.20;;;8.65;;
55210;SDS011;41082;52.822;6.666;2022-08-01T01:01:46;10.90;;;8.30;;
55210;SDS011;41082;52.822;6.666;2022-08-01T01:04:12;10.90;;;8.75;;
55210;SDS011;41082;52.822;6.666;2022-08-01T01:09:39;9.38;;;7.68;;
55210;SDS011;41082;52.822;6.666;2022-08-01T01:15:18;10.23;;;7.07;;
55210;SDS011;41082;52.822;6.666;2022-08-01T01:20:41;7.50;;;5.63;;
55210;SDS011;41082;52.822;6.666;2022-08-01T01:31:06;5.85;;;5.32;;
55210;SDS011;41082;52.822;6.666;2022-08-01T01:33:36;9.32;;;5.78;;
55210;SDS011;41082;52.822;6.666;2022-08-01T01:36:05;8.85;;;5.55;;
55210;SDS011;41082;52.822;6.666;2022-08-01T01:38:34;6.43;;;5.22;;
55210;SDS011;41082;52.822;6.666;2022-08-01T01:41:02;7.15;;;5.38;;
55210;SDS011;41082;52.822;6.666;2022-08-01T01:43:30;9.68;;;5.40;;
55210;SDS011;41082;52.822;6.666;2022-08-01T01:45:57;6.47;;;5.25;;
55210;SDS011;41082;52.822;6.666;2022-08-01T01:48:24;5.88;;;5.28;;
55210;SDS011;41082;52.822;6.666;2022-08-01T01:50:51;9.70;;;5.55;;
55210;SDS011;41082;52.822;6.666;2022-08-01T01:53:19;8.77;;;5.80;;
55210;SDS011;41082;52.822;6.666;2022-08-01T01:55:47;7.88;;;5.00;;
55210;SDS011;41082;52.822;6.666;2022-08-01T01:58:16;8.13;;;4.82;;
55210;SDS011;41082;52.822;6.666;2022-08-01T02:00:44;5.43;;;4.28;;
55210;SDS011;41082;52.822;6.666;2022-08-01T02:03:12;6.95;;;4.97;;
55210;SDS011;41082;52.822;6.666;2022-08-01T02:05:39;6.10;;;4.20;;
55210;SDS011;41082;52.822;6.666;2022-08-01T02:08:07;5.63;;;3.47;;
55210;SDS011;41082;52.822;6.666;2022-08-01T02:10:33;3.30;;;1.95;;
55210;SDS011;41082;52.822;6.666;2022-08-01T02:13:02;3.78;;;2.67;;
55210;SDS011;41082;52.822;6.666;2022-08-01T02:15:30;2.92;;;2.58;;
55210;SDS011;41082;52.822;6.666;2022-08-01T02:17:58;5.13;;;1.60;;
55210;SDS011;41082;52.822;6.666;2022-08-01T02:20:27;2.28;;;1.33;;
55210;SDS011;41082;52.822;6.666;2022-08-01T02:23:03;1.52;;;1.00;;
55210;SDS011;41082;52.822;6.666;2022-08-01T02:25:37;3.40;;;1.00;;
55210;SDS011;41082;52.822;6.666;2022-08-01T02:28:33;2.08;;;1.13;;
55210;SDS011;41082;52.822;6.666;2022-08-01T02:31:05;2.58;;;1.40;;
55210;SDS011;41082;52.822;6.666;2022-08-01T02:33:40;4.13;;;1.40;;
55210;SDS011;41082;52.822;6.666;2022-08-01T02:36:08;1.90;;;1.42;;
55210;SDS011;41082;52.822;6.666;2022-08-01T02:38:37;1.50;;;1.20;;
55210;SDS011;41082;52.822;6.666;2022-08-01T02:41:11;2.97;;;1.08;;
55210;SDS011;41082;52.822;6.666;2022-08-01T02:43:46;4.00;;;1.38;;
55210;SDS011;41082;52.822;6.666;2022-08-01T02:46:16;1.75;;;1.40;;
55210;SDS011;41082;52.822;6.666;2022-08-01T02:48:46;2.70;;;1.25;;
55210;SDS011;41082;52.822;6.666;2022-08-01T02:51:15;2.95;;;1.40;;
55210;SDS011;41082;52.822;6.666;2022-08-01T02:53:42;3.80;;;1.40;;
55210;SDS011;41082;52.822;6.666;2022-08-01T02:56:10;2.30;;;1.30;;
55210;SDS011;41082;52.822;6.666;2022-08-01T02:58:37;3.03;;;0.90;;
55210;SDS011;41082;52.822;6.666;2022-08-01T03:01:04;6.15;;;1.90;;
55210;SDS011;41082;52.822;6.666;2022-08-01T03:03:31;5.03;;;1.90;;
55210;SDS011;41082;52.822;6.666;2022-08-01T03:05:57;8.18;;;2.30;;
55210;SDS011;41082;52.822;6.666;2022-08-01T03:08:23;1.92;;;1.60;;
55210;SDS011;41082;52.822;6.666;2022-08-01T03:10:50;3.50;;;2.20;;
55210;SDS011;41082;52.822;6.666;2022-08-01T03:13:16;6.50;;;2.15;;
55210;SDS011;41082;52.822;6.666;2022-08-01T03:15:45;2.83;;;1.92;;
55210;SDS011;41082;52.822;6.666;2022-08-01T03:18:12;3.45;;;1.58;;
55210;SDS011;41082;52.822;6.666;2022-08-01T03:20:39;3.95;;;1.77;;
55210;SDS011;41082;52.822;6.666;2022-08-01T03:23:08;4.97;;;1.73;;
55210;SDS011;41082;52.822;6.666;2022-08-01T03:25:39;3.40;;;2.03;;
55210;SDS011;41082;52.822;6.666;2022-08-01T03:28:07;3.78;;;1.50;;
55210;SDS011;41082;52.822;6.666;2022-08-01T03:30:33;3.53;;;1.77;;
55210;SDS011;41082;52.822;6.666;2022-08-01T03:33:01;3.17;;;1.13;;
55210;SDS011;41082;52.822;6.666;2022-08-01T03:35:33;2.88;;;1.50;;
55210;SDS011;41082;52.822;6.666;2022-08-01T03:38:01;2.40;;;1.10;;
55210;SDS011;41082;52.822;6.666;2022-08-01T03:43:38;2.88;;;1.10;;
55210;SDS011;41082;52.822;6.666;2022-08-01T03:46:11;4.38;;;1.15;;
55210;SDS011;41082;52.822;6.666;2022-08-01T03:48:46;4.45;;;1.05;;
55210;SDS011;41082;52.822;6.666;2022-08-01T03:51:13;2.83;;;1.00;;
55210;SDS011;41082;52.822;6.666;2022-08-01T03:53:41;3.22;;;0.90;;
55210;SDS011;41082;52.822;6.666;2022-08-01T03:56:09;3.95;;;0.77;;
55210;SDS011;41082;52.822;6.666;2022-08-01T03:58:40;3.30;;;0.98;;
55210;SDS011;41082;52.822;6.666;2022-08-01T04:01:07;3.20;;;0.70;;
55210;SDS011;41082;52.822;6.666;2022-08-01T04:03:34;1.50;;;0.88;;
55210;SDS011;41082;52.822;6.666;2022-08-01T04:06:03;3.90;;;0.80;;
55210;SDS011;41082;52.822;6.666;2022-08-01T04:08:36;3.45;;;0.65;;
55210;SDS011;41082;52.822;6.666;2022-08-01T04:11:02;4.32;;;0.70;;
55210;SDS011;41082;52.822;6.666;2022-08-01T04:13:28;2.97;;;0.68;;
55210;SDS011;41082;52.822;6.666;2022-08-01T04:15:53;2.92;;;0.60;;
55210;SDS011;41082;52.822;6.666;2022-08-01T04:18:19;4.80;;;0.80;;
55210;SDS011;41082;52.822;6.666;2022-08-01T04:20:48;2.38;;;0.68;;
55210;SDS011;41082;52.822;6.666;2022-08-01T04:23:20;3.85;;;0.95;;
55210;SDS011;41082;52.822;6.666;2022-08-01T04:25:49;4.30;;;0.93;;
55210;SDS011;41082;52.822;6.666;2022-08-01T04:28:15;3.50;;;0.63;;
55210;SDS011;41082;52.822;6.666;2022-08-01T04:30:43;6.18;;;0.90;;
55210;SDS011;41082;52.822;6.666;2022-08-01T04:33:11;4.72;;;0.90;;
55210;SDS011;41082;52.822;6.666;2022-08-01T04:35:41;2.50;;;0.80;;
55210;SDS011;41082;52.822;6.666;2022-08-01T04:38:10;2.58;;;0.93;;
55210;SDS011;41082;52.822;6.666;2022-08-01T04:40:40;4.95;;;0.70;;
55210;SDS011;41082;52.822;6.666;2022-08-01T04:43:06;4.30;;;0.70;;
55210;SDS011;41082;52.822;6.666;2022-08-01T04:45:32;1.80;;;0.85;;
55210;SDS011;41082;52.822;6.666;2022-08-01T04:47:59;3.55;;;1.08;;
55210;SDS011;41082;52.822;6.666;2022-08-01T04:50:25;7.32;;;1.13;;
55210;SDS011;41082;52.822;6.666;2022-08-01T04:52:52;5.47;;;1.20;;
55210;SDS011;41082;52.822;6.666;2022-08-01T04:55:17;5.40;;;1.10;;
55210;SDS011;41082;52.822;6.666;2022-08-01T04:57:44;3.30;;;0.90;;
55210;SDS011;41082;52.822;6.666;2022-08-01T05:00:11;3.83;;;1.10;;
55210;SDS011;41082;52.822;6.666;2022-08-01T05:02:37;9.45;;;1.63;;
55210;SDS011;41082;52.822;6.666;2022-08-01T05:05:03;6.60;;;1.02;;
55210;SDS011;41082;52.822;6.666;2022-08-01T05:07:31;4.90;;;0.98;;
55210;SDS011;41082;52.822;6.666;2022-08-01T05:09:57;4.47;;;0.82;;
55210;SDS011;41082;52.822;6.666;2022-08-01T05:12:22;4.75;;;0.90;;
55210;SDS011;41082;52.822;6.666;2022-08-01T05:14:48;4.70;;;0.82;;
55210;SDS011;41082;52.822;6.666;2022-08-01T05:17:13;7.50;;;2.10;;
55210;SDS011;41082;52.822;6.666;2022-08-01T05:19:39;7.38;;;1.60;;
55210;SDS011;41082;52.822;6.666;2022-08-01T05:22:06;8.18;;;1.13;;
55210;SDS011;41082;52.822;6.666;2022-08-01T05:24:36;6.70;;;1.20;;
55210;SDS011;41082;52.822;6.666;2022-08-01T05:27:03;6.75;;;1.23;;
55210;SDS011;41082;52.822;6.666;2022-08-01T05:29:29;10.50;;;1.80;;
55210;SDS011;41082;52.822;6.666;2022-08-01T05:31:55;8.50;;;1.70;;
55210;SDS011;41082;52.822;6.666;2022-08-01T05:34:21;13.82;;;1.40;;
55210;SDS011;41082;52.822;6.666;2022-08-01T05:36:47;7.43;;;1.50;;
55210;SDS011;41082;52.822;6.666;2022-08-01T05:39:13;12.23;;;1.90;;
55210;SDS011;41082;52.822;6.666;2022-08-01T05:41:39;8.25;;;2.90;;
55210;SDS011;41082;52.822;6.666;2022-08-01T05:44:05;10.18;;;1.58;;
55210;SDS011;41082;52.822;6.666;2022-08-01T05:46:31;8.45;;;1.52;;
55210;SDS011;41082;52.822;6.666;2022-08-01T05:48:57;7.93;;;2.25;;
55210;SDS011;41082;52.822;6.666;2022-08-01T05:51:23;10.18;;;2.13;;
55210;SDS011;41082;52.822;6.666;2022-08-01T05:53:49;8.65;;;1.73;;
55210;SDS011;41082;52.822;6.666;2022-08-01T05:56:15;9.27;;;1.77;;
55210;SDS011;41082;52.822;6.666;2022-08-01T05:58:40;8.02;;;1.20;;
55210;SDS011;41082;52.822;6.666;2022-08-01T06:01:06;9.63;;;1.58;;
55210;SDS011;41082;52.822;6.666;2022-08-01T06:03:32;8.88;;;1.63;;
55210;SDS011;41082;52.822;6.666;2022-08-01T06:05:58;8.93;;;1.48;;
55210;SDS011;41082;52.822;6.666;2022-08-01T06:08:25;9.65;;;1.75;;
55210;SDS011;41082;52.822;6.666;2022-08-01T06:10:51;10.43;;;1.70;;
55210;SDS011;41082;52.822;6.666;2022-08-01T06:13:17;13.02;;;1.77;;
55210;SDS011;41082;52.822;6.666;2022-08-01T06:15:44;7.65;;;1.42;;
55210;SDS011;41082;52.822;6.666;2022-08-01T06:18:11;14.05;;;1.52;;
55210;SDS011;41082;52.822;6.666;2022-08-01T06:20:37;14.07;;;1.75;;
55210;SDS011;41082;52.822;6.666;2022-08-01T06:23:02;14.05;;;1.85;;
55210;SDS011;41082;52.822;6.666;2022-08-01T06:25:28;13.20;;;1.60;;
55210;SDS011;41082;52.822;6.666;2022-08-01T06:27:54;12.00;;;1.63;;
55210;SDS011;41082;52.822;6.666;2022-08-01T06:30:20;9.15;;;1.38;;
55210;SDS011;41082;52.822;6.666;2022-08-01T06:32:45;9.57;;;1.42;;
55210;SDS011;41082;52.822;6.666;2022-08-01T06:35:12;12.50;;;1.65;;
55210;SDS011;41082;52.822;6.666;2022-08-01T06:37:38;11.57;;;1.40;;
55210;SDS011;41082;52.822;6.666;2022-08-01T06:40:04;9.63;;;1.80;;
55210;SDS011;41082;52.822;6.666;2022-08-01T06:42:31;10.60;;;1.60;;
55210;SDS011;41082;52.822;6.666;2022-08-01T06:45:01;14.07;;;1.73;;
55210;SDS011;41082;52.822;6.666;2022-08-01T06:47:31;10.93;;;1.40;;
55210;SDS011;41082;52.822;6.666;2022-08-01T06:49:56;11.40;;;1.73;;
55210;SDS011;41082;52.822;6.666;2022-08-01T06:52:22;9.15;;;1.35;;
55210;SDS011;41082;52.822;6.666;2022-08-01T06:54:47;16.08;;;2.03;;
55210;SDS011;41082;52.822;6.666;2022-08-01T06:57:13;13.18;;;2.00;;
55210;SDS011;41082;52.822;6.666;2022-08-01T06:59:39;16.42;;;1.55;;
55210;SDS011;41082;52.822;6.666;2022-08-01T07:02:04;14.15;;;2.50;;
55210;SDS011;41082;52.822;6.666;2022-08-01T07:04:31;11.27;;;1.63;;
55210;SDS011;41082;52.822;6.666;2022-08-01T07:06:57;10.48;;;1.70;;
55210;SDS011;41082;52.822;6.666;2022-08-01T07:09:22;9.43;;;1.50;;
55210;SDS011;41082;52.822;6.666;2022-08-01T07:11:48;7.90;;;1.67;;
55210;SDS011;41082;52.822;6.666;2022-08-01T07:14:15;11.80;;;1.67;;
55210;SDS011;41082;52.822;6.666;2022-08-01T07:16:41;15.20;;;1.73;;
55210;SDS011;41082;52.822;6.666;2022-08-01T07:19:06;13.50;;;1.27;;
55210;SDS011;41082;52.822;6.666;2022-08-01T07:21:32;12.43;;;1.83;;
55210;SDS011;41082;52.822;6.666;2022-08-01T07:23:58;9.85;;;1.55;;
55210;SDS011;41082;52.822;6.666;2022-08-01T07:26:24;13.95;;;1.52;;
55210;SDS011;41082;52.822;6.666;2022-08-01T07:28:49;11.10;;;1.42;;
55210;SDS011;41082;52.822;6.666;2022-08-01T07:31:15;11.73;;;1.55;;
55210;SDS011;41082;52.822;6.666;2022-08-01T07:33:41;13.60;;;1.50;;
55210;SDS011;41082;52.822;6.666;2022-08-01T07:36:06;12.85;;;2.50;;
55210;SDS011;41082;52.822;6.666;2022-08-01T07:38:32;19.42;;;2.35;;
55210;SDS011;41082;52.822;6.666;2022-08-01T07:40:58;15.57;;;1.83;;
55210;SDS011;41082;52.822;6.666;2022-08-01T07:43:23;16.73;;;2.22;;
55210;SDS011;41082;52.822;6.666;2022-08-01T07:45:49;16.13;;;2.35;;
55210;SDS011;41082;52.822;6.666;2022-08-01T07:48:14;10.48;;;2.10;;
55210;SDS011;41082;52.822;6.666;2022-08-01T07:50:40;11.32;;;1.80;;
55210;SDS011;41082;52.822;6.666;2022-08-01T07:53:05;11.70;;;1.48;;
55210;SDS011;41082;52.822;6.666;2022-08-01T07:55:31;18.95;;;2.13;;
55210;SDS011;41082;52.822;6.666;2022-08-01T07:57:56;12.73;;;1.75;;
55210;SDS011;41082;52.822;6.666;2022-08-01T08:00:22;13.75;;;2.08;;
55210;SDS011;41082;52.822;6.666;2022-08-01T08:02:48;16.42;;;2.20;;
55210;SDS011;41082;52.822;6.666;2022-08-01T08:05:14;19.70;;;2.13;;
55210;SDS011;41082;52.822;6.666;2022-08-01T08:07:39;14.82;;;1.90;;
55210;SDS011;41082;52.822;6.666;2022-08-01T08:10:05;15.60;;;1.77;;
55210;SDS011;41082;52.822;6.666;2022-08-01T08:12:31;15.23;;;1.92;;
55210;SDS011;41082;52.822;6.666;2022-08-01T08:14:57;14.18;;;1.75;;
55210;SDS011;41082;52.822;6.666;2022-08-01T08:17:26;11.45;;;1.60;;
55210;SDS011;41082;52.822;6.666;2022-08-01T08:19:52;15.98;;;1.95;;
55210;SDS011;41082;52.822;6.666;2022-08-01T08:22:18;12.23;;;1.95;;
55210;SDS011;41082;52.822;6.666;2022-08-01T08:24:44;12.82;;;1.58;;
55210;SDS011;41082;52.822;6.666;2022-08-01T08:27:09;16.08;;;2.10;;
55210;SDS011;41082;52.822;6.666;2022-08-01T08:29:36;15.77;;;2.60;;
55210;SDS011;41082;52.822;6.666;2022-08-01T08:32:02;13.00;;;1.73;;
55210;SDS011;41082;52.822;6.666;2022-08-01T08:34:28;14.10;;;2.05;;
55210;SDS011;41082;52.822;6.666;2022-08-01T08:36:54;15.63;;;1.80;;
55210;SDS011;41082;52.822;6.666;2022-08-01T08:39:21;11.20;;;1.45;;
55210;SDS011;41082;52.822;6.666;2022-08-01T08:41:47;11.23;;;1.60;;
55210;SDS011;41082;52.822;6.666;2022-08-01T08:44:13;10.23;;;1.67;;
55210;SDS011;41082;52.822;6.666;2022-08-01T08:46:43;12.88;;;1.75;;
55210;SDS011;41082;52.822;6.666;2022-08-01T08:51:41;11.30;;;1.55;;
55210;SDS011;41082;52.822;6.666;2022-08-01T08:54:07;18.30;;;1.73;;
55210;SDS011;41082;52.822;6.666;2022-08-01T08:56:36;12.40;;;1.30;;
55210;SDS011;41082;52.822;6.666;2022-08-01T08:59:03;15.85;;;1.30;;
55210;SDS011;41082;52.822;6.666;2022-08-01T09:01:30;11.38;;;1.77;;
55210;SDS011;41082;52.822;6.666;2022-08-01T09:06:26;10.32;;;2.13;;
55210;SDS011;41082;52.822;6.666;2022-08-01T09:08:53;10.02;;;1.63;;
55210;SDS011;41082;52.822;6.666;2022-08-01T09:11:18;7.45;;;0.73;;
55210;SDS011;41082;52.822;6.666;2022-08-01T09:14:07;10.77;;;1.00;;
55210;SDS011;41082;52.822;6.666;2022-08-01T09:16:58;9.38;;;1.05;;
55210;SDS011;41082;52.822;6.666;2022-08-01T09:19:26;8.60;;;1.30;;
55210;SDS011;41082;52.822;6.666;2022-08-01T09:22:01;16.10;;;3.30;;
55210;SDS011;41082;52.822;6.666;2022-08-01T09:24:29;9.00;;;0.90;;
55210;SDS011;41082;52.822;6.666;2022-08-01T09:26:56;9.32;;;1.10;;
55210;SDS011;41082;52.822;6.666;2022-08-01T09:29:24;10.20;;;1.15;;
55210;SDS011;41082;52.822;6.666;2022-08-01T09:31:52;11.70;;;1.30;;
55210;SDS011;41082;52.822;6.666;2022-08-01T09:34:27;11.52;;;2.17;;
55210;SDS011;41082;52.822;6.666;2022-08-01T09:36:56;10.23;;;1.13;;
55210;SDS011;41082;52.822;6.666;2022-08-01T09:39:27;8.40;;;1.25;;
55210;SDS011;41082;52.822;6.666;2022-08-01T09:41:55;9.07;;;1.05;;
55210;SDS011;41082;52.822;6.666;2022-08-01T09:44:39;11.10;;;1.58;;
55210;SDS011;41082;52.822;6.666;2022-08-01T09:47:06;13.73;;;1.13;;
55210;SDS011;41082;52.822;6.666;2022-08-01T09:49:33;6.88;;;0.82;;
55210;SDS011;41082;52.822;6.666;2022-08-01T09:52:18;8.80;;;1.40;;
55210;SDS011;41082;52.822;6.666;2022-08-01T09:55:20;7.20;;;0.90;;
55210;SDS011;41082;52.822;6.666;2022-08-01T09:57:37;11.13;;;1.10;;
55210;SDS011;41082;52.822;6.666;2022-08-01T10:00:03;9.82;;;1.20;;
55210;SDS011;41082;52.822;6.666;2022-08-01T10:02:33;7.65;;;0.90;;
55210;SDS011;41082;52.822;6.666;2022-08-01T10:05:02;7.22;;;1.13;;
55210;SDS011;41082;52.822;6.666;2022-08-01T10:07:33;7.28;;;0.70;;
55210;SDS011;41082;52.822;6.666;2022-08-01T10:10:11;10.23;;;1.20;;
55210;SDS011;41082;52.822;6.666;2022-08-01T10:12:38;7.68;;;0.98;;
55210;SDS011;41082;52.822;6.666;2022-08-01T10:15:05;9.50;;;1.58;;
55210;SDS011;41082;52.822;6.666;2022-08-01T10:17:32;10.60;;;0.90;;
55210;SDS011;41082;52.822;6.666;2022-08-01T10:20:02;4.55;;;0.60;;
55210;SDS011;41082;52.822;6.666;2022-08-01T10:22:28;6.88;;;0.98;;
55210;SDS011;41082;52.822;6.666;2022-08-01T10:24:56;6.25;;;0.60;;
55210;SDS011;41082;52.822;6.666;2022-08-01T10:27:25;6.07;;;1.25;;
55210;SDS011;41082;52.822;6.666;2022-08-01T10:29:58;5.72;;;0.98;;
55210;SDS011;41082;52.822;6.666;2022-08-01T10:32:29;6.30;;;0.60;;
55210;SDS011;41082;52.822;6.666;2022-08-01T10:34:55;5.90;;;0.98;;
55210;SDS011;41082;52.822;6.666;2022-08-01T10:37:22;3.80;;;0.70;;
55210;SDS011;41082;52.822;6.666;2022-08-01T10:39:48;7.80;;;0.68;;
55210;SDS011;41082;52.822;6.666;2022-08-01T10:42:16;4.85;;;0.95;;
55210;SDS011;41082;52.822;6.666;2022-08-01T10:44:43;7.45;;;0.75;;
55210;SDS011;41082;52.822;6.666;2022-08-01T10:47:12;8.38;;;0.80;;
55210;SDS011;41082;52.822;6.666;2022-08-01T10:49:53;7.13;;;0.90;;
55210;SDS011;41082;52.822;6.666;2022-08-01T10:52:26;4.45;;;0.60;;
55210;SDS011;41082;52.822;6.666;2022-08-01T10:55:08;8.10;;;0.80;;
55210;SDS011;41082;52.822;6.666;2022-08-01T10:57:46;6.57;;;0.75;;
55210;SDS011;41082;52.822;6.666;2022-08-01T11:00:18;6.43;;;0.73;;
55210;SDS011;41082;52.822;6.666;2022-08-01T11:02:58;7.55;;;0.68;;
55210;SDS011;41082;52.822;6.666;2022-08-01T11:05:26;2.65;;;0.47;;
55210;SDS011;41082;52.822;6.666;2022-08-01T11:07:55;6.15;;;1.10;;
55210;SDS011;41082;52.822;6.666;2022-08-01T11:10:30;6.65;;;0.70;;
55210;SDS011;41082;52.822;6.666;2022-08-01T11:13:03;5.40;;;0.88;;
55210;SDS011;41082;52.822;6.666;2022-08-01T11:15:32;5.20;;;0.73;;
55210;SDS011;41082;52.822;6.666;2022-08-01T11:17:59;5.20;;;0.52;;
55210;SDS011;41082;52.822;6.666;2022-08-01T11:30:49;8.00;;;1.15;;
55210;SDS011;41082;52.822;6.666;2022-08-01T11:33:17;6.43;;;0.50;;
55210;SDS011;41082;52.822;6.666;2022-08-01T11:38:35;7.72;;;0.93;;
55210;SDS011;41082;52.822;6.666;2022-08-01T11:52:13;4.72;;;0.57;;
55210;SDS011;41082;52.822;6.666;2022-08-01T11:54:42;3.63;;;0.43;;
55210;SDS011;41082;52.822;6.666;2022-08-01T11:57:11;6.20;;;0.50;;
55210;SDS011;41082;52.822;6.666;2022-08-01T11:59:54;4.72;;;0.57;;
55210;SDS011;41082;52.822;6.666;2022-08-01T12:05:11;6.32;;;0.45;;
55210;SDS011;41082;52.822;6.666;2022-08-01T12:07:39;3.35;;;0.40;;
55210;SDS011;41082;52.822;6.666;2022-08-01T12:10:07;6.55;;;0.77;;
55210;SDS011;41082;52.822;6.666;2022-08-01T12:12:51;5.85;;;0.50;;
55210;SDS011;41082;52.822;6.666;2022-08-01T12:15:23;4.07;;;0.57;;
55210;SDS011;41082;52.822;6.666;2022-08-01T12:17:56;6.25;;;0.60;;
55210;SDS011;41082;52.822;6.666;2022-08-01T12:20:23;4.35;;;0.38;;
55210;SDS011;41082;52.822;6.666;2022-08-01T12:22:54;3.97;;;0.50;;
55210;SDS011;41082;52.822;6.666;2022-08-01T12:25:21;6.00;;;0.40;;
55210;SDS011;41082;52.822;6.666;2022-08-01T12:27:47;5.40;;;0.63;;
55210;SDS011;41082;52.822;6.666;2022-08-01T12:30:17;6.70;;;0.55;;
55210;SDS011;41082;52.822;6.666;2022-08-01T12:32:47;8.27;;;1.23;;
55210;SDS011;41082;52.822;6.666;2022-08-01T12:35:14;6.05;;;0.45;;
55210;SDS011;41082;52.822;6.666;2022-08-01T12:37:50;4.10;;;0.40;;
55210;SDS011;41082;52.822;6.666;2022-08-01T12:40:36;3.72;;;0.47;;
55210;SDS011;41082;52.822;6.666;2022-08-01T12:43:06;3.65;;;0.30;;
55210;SDS011;41082;52.822;6.666;2022-08-01T12:45:37;3.47;;;0.65;;
55210;SDS011;41082;52.822;6.666;2022-08-01T12:48:10;6.95;;;0.80;;
55210;SDS011;41082;52.822;6.666;2022-08-01T12:50:38;5.28;;;0.50;;
55210;SDS011;41082;52.822;6.666;2022-08-01T12:53:05;5.63;;;0.38;;
55210;SDS011;41082;52.822;6.666;2022-08-01T12:55:32;3.53;;;0.45;;
55210;SDS011;41082;52.822;6.666;2022-08-01T12:58:08;4.53;;;0.68;;
55210;SDS011;41082;52.822;6.666;2022-08-01T13:00:37;5.00;;;0.65;;
55210;SDS011;41082;52.822;6.666;2022-08-01T13:03:10;7.00;;;1.20;;
55210;SDS011;41082;52.822;6.666;2022-08-01T13:05:47;3.90;;;0.40;;
55210;SDS011;41082;52.822;6.666;2022-08-01T13:10:44;5.72;;;0.40;;
55210;SDS011;41082;52.822;6.666;2022-08-01T13:13:10;6.72;;;0.60;;
55210;SDS011;41082;52.822;6.666;2022-08-01T13:15:37;5.43;;;0.47;;
55210;SDS011;41082;52.822;6.666;2022-08-01T13:18:24;8.00;;;0.82;;
55210;SDS011;41082;52.822;6.666;2022-08-01T13:21:13;7.10;;;0.60;;
55210;SDS011;41082;52.822;6.666;2022-08-01T13:26:46;6.57;;;0.60;;
55210;SDS011;41082;52.822;6.666;2022-08-01T13:29:17;5.00;;;0.45;;
55210;SDS011;41082;52.822;6.666;2022-08-01T13:31:45;5.43;;;0.52;;
55210;SDS011;41082;52.822;6.666;2022-08-01T13:34:12;5.47;;;0.68;;
55210;SDS011;41082;52.822;6.666;2022-08-01T13:36:38;3.85;;;0.35;;
55210;SDS011;41082;52.822;6.666;2022-08-01T13:39:04;4.40;;;0.70;;
55210;SDS011;41082;52.822;6.666;2022-08-01T13:41:49;6.80;;;0.60;;
55210;SDS011;41082;52.822;6.666;2022-08-01T13:44:15;9.50;;;0.82;;
55210;SDS011;41082;52.822;6.666;2022-08-01T13:46:41;7.35;;;0.43;;
55210;SDS011;41082;52.822;6.666;2022-08-01T13:49:08;6.65;;;0.70;;
55210;SDS011;41082;52.822;6.666;2022-08-01T13:51:34;6.25;;;0.40;;
55210;SDS011;41082;52.822;6.666;2022-08-01T13:54:00;4.40;;;0.63;;
55210;SDS011;41082;52.822;6.666;2022-08-01T13:56:26;6.00;;;0.50;;
55210;SDS011;41082;52.822;6.666;2022-08-01T13:58:52;9.38;;;0.40;;
55210;SDS011;41082;52.822;6.666;2022-08-01T14:01:19;5.15;;;0.30;;
55210;SDS011;41082;52.822;6.666;2022-08-01T14:03:45;6.95;;;0.50;;
55210;SDS011;41082;52.822;6.666;2022-08-01T14:06:11;6.32;;;0.70;;
55210;SDS011;41082;52.822;6.666;2022-08-01T14:08:39;3.53;;;0.30;;
55210;SDS011;41082;52.822;6.666;2022-08-01T14:11:04;5.80;;;0.30;;
55210;SDS011;41082;52.822;6.666;2022-08-01T14:13:30;4.13;;;0.30;;
55210;SDS011;41082;52.822;6.666;2022-08-01T14:15:56;4.93;;;0.63;;
55210;SDS011;41082;52.822;6.666;2022-08-01T14:18:21;2.92;;;0.30;;
55210;SDS011;41082;52.822;6.666;2022-08-01T14:20:47;3.78;;;0.38;;
55210;SDS011;41082;52.822;6.666;2022-08-01T14:23:12;3.42;;;0.30;;
55210;SDS011;41082;52.822;6.666;2022-08-01T14:25:39;4.22;;;0.43;;
55210;SDS011;41082;52.822;6.666;2022-08-01T14:28:05;3.85;;;0.65;;
55210;SDS011;41082;52.822;6.666;2022-08-01T14:30:31;3.33;;;0.30;;
55210;SDS011;41082;52.822;6.666;2022-08-01T14:32:58;4.88;;;0.30;;
55210;SDS011;41082;52.822;6.666;2022-08-01T14:35:24;6.05;;;0.77;;
55210;SDS011;41082;52.822;6.666;2022-08-01T14:37:50;4.55;;;0.40;;
55210;SDS011;41082;52.822;6.666;2022-08-01T14:40:16;3.22;;;0.30;;
55210;SDS011;41082;52.822;6.666;2022-08-01T14:42:42;3.35;;;0.40;;
55210;SDS011;41082;52.822;6.666;2022-08-01T14:45:11;3.90;;;0.55;;
55210;SDS011;41082;52.822;6.666;2022-08-01T14:47:38;4.35;;;0.20;;
55210;SDS011;41082;52.822;6.666;2022-08-01T14:50:06;4.75;;;0.40;;
55210;SDS011;41082;52.822;6.666;2022-08-01T14:52:35;3.83;;;0.28;;
55210;SDS011;41082;52.822;6.666;2022-08-01T14:55:02;8.27;;;0.40;;
55210;SDS011;41082;52.822;6.666;2022-08-01T14:57:29;4.47;;;0.70;;
55210;SDS011;41082;52.822;6.666;2022-08-01T14:59:54;6.82;;;0.93;;
55210;SDS011;41082;52.822;6.666;2022-08-01T15:02:20;4.68;;;0.38;;
55210;SDS011;41082;52.822;6.666;2022-08-01T15:04:46;5.97;;;0.50;;
55210;SDS011;41082;52.822;6.666;2022-08-01T15:07:13;4.30;;;0.50;;
55210;SDS011;41082;52.822;6.666;2022-08-01T15:09:40;3.72;;;0.35;;
55210;SDS011;41082;52.822;6.666;2022-08-01T15:12:06;3.70;;;1.00;;
55210;SDS011;41082;52.822;6.666;2022-08-01T15:14:32;4.47;;;0.57;;
55210;SDS011;41082;52.822;6.666;2022-08-01T15:19:46;5.32;;;0.32;;
55210;SDS011;41082;52.822;6.666;2022-08-01T15:22:13;4.20;;;0.47;;
55210;SDS011;41082;52.822;6.666;2022-08-01T15:24:39;5.88;;;0.50;;
55210;SDS011;41082;52.822;6.666;2022-08-01T15:27:05;4.50;;;0.60;;
55210;SDS011;41082;52.822;6.666;2022-08-01T15:29:31;5.57;;;0.40;;
55210;SDS011;41082;52.822;6.666;2022-08-01T15:31:58;3.40;;;0.40;;
55210;SDS011;41082;52.822;6.666;2022-08-01T15:34:23;5.40;;;0.22;;
55210;SDS011;41082;52.822;6.666;2022-08-01T15:36:50;5.43;;;0.40;;
55210;SDS011;41082;52.822;6.666;2022-08-01T15:39:16;2.65;;;0.40;;
55210;SDS011;41082;52.822;6.666;2022-08-01T15:41:42;2.20;;;0.30;;
55210;SDS011;41082;52.822;6.666;2022-08-01T15:44:07;3.60;;;0.45;;
55210;SDS011;41082;52.822;6.666;2022-08-01T15:46:33;6.07;;;0.35;;
55210;SDS011;41082;52.822;6.666;2022-08-01T15:49:05;4.72;;;0.60;;